createdAt,value
2022-09-05T00:03:35.658Z,3.30
2022-09-05T00:07:44.689Z,2.40
2022-09-05T00:11:43.964Z,2.70
2022-09-05T00:15:40.857Z,2.60
2022-09-05T00:24:21.470Z,3.40
2022-09-05T00:24:45.605Z,2.90
2022-09-05T00:28:26.644Z,3.20
2022-09-05T00:32:21.405Z,3.80
2022-09-05T00:36:21.825Z,4.70
2022-09-05T00:40:26.830Z,4.10
2022-09-05T00:44:15.266Z,2.20
2022-09-05T00:48:09.831Z,2.90
2022-09-05T00:52:02.003Z,4.50
2022-09-05T00:56:03.088Z,3.10
2022-09-05T01:00:06.361Z,2.60
2022-09-05T01:04:11.691Z,3.30
2022-09-05T01:08:18.155Z,5.70
2022-09-05T01:12:33.612Z,5.20
2022-09-05T01:16:27.697Z,3.50
2022-09-05T01:20:38.500Z,3.30
2022-09-05T01:24:51.523Z,3.00
2022-09-05T01:29:15.905Z,3.50
2022-09-05T01:33:05.717Z,5.20
2022-09-05T01:37:00.574Z,3.40
2022-09-05T01:41:17.985Z,3.80
2022-09-05T01:45:08.355Z,3.40
2022-09-05T01:49:00.387Z,3.30
2022-09-05T01:53:07.129Z,3.60
2022-09-05T01:57:11.134Z,2.30
2022-09-05T02:01:26.643Z,2.60
2022-09-05T02:05:48.194Z,2.90
2022-09-05T02:09:43.528Z,2.30
2022-09-05T02:13:43.356Z,3.10
2022-09-05T02:17:51.244Z,2.90
2022-09-05T02:21:57.148Z,4.00
2022-09-05T02:26:00.981Z,2.10
2022-09-05T02:29:57.273Z,2.70
2022-09-05T02:33:49.085Z,3.50
2022-09-05T02:39:16.196Z,4.10
2022-09-05T02:45:11.902Z,2.90
2022-09-05T02:46:11.395Z,5.20
2022-09-05T02:54:14.260Z,3.40
2022-09-05T02:57:39.949Z,2.50
2022-09-05T02:59:09.090Z,5.90
2022-09-05T03:03:16.988Z,3.70
2022-09-05T03:07:15.645Z,4.60
2022-09-05T03:11:32.671Z,2.90
2022-09-05T03:16:08.348Z,4.50
2022-09-05T03:20:28.878Z,3.00
2022-09-05T03:25:02.666Z,3.30
2022-09-05T03:29:24.428Z,4.20
2022-09-05T03:33:55.019Z,3.50
2022-09-05T03:38:13.954Z,3.50
2022-09-05T03:42:15.596Z,2.60
2022-09-05T03:46:23.260Z,3.50
2022-09-05T03:55:45.402Z,4.30
2022-09-05T03:57:18.763Z,4.30
2022-09-05T03:59:40.595Z,3.00
2022-09-05T04:08:10.403Z,2.10
2022-09-05T04:08:27.683Z,4.40
2022-09-05T04:11:54.235Z,6.60
2022-09-05T04:15:43.555Z,2.30
2022-09-05T04:19:36.317Z,3.30
2022-09-05T04:23:31.641Z,3.50
2022-09-05T04:27:39.795Z,5.70
2022-09-05T04:31:32.391Z,4.70
2022-09-05T04:35:31.309Z,5.30
2022-09-05T04:39:32.391Z,10.10
2022-09-05T04:43:32.904Z,11.10
2022-09-05T04:47:27.245Z,13.30
2022-09-05T04:51:40.590Z,12.10
2022-09-05T04:55:32.167Z,10.20
2022-09-05T05:02:38.105Z,7.30
2022-09-05T05:06:19.740Z,6.80
2022-09-05T05:07:47.521Z,7.60
2022-09-05T05:17:33.029Z,5.00
2022-09-05T05:18:03.732Z,3.20
2022-09-05T05:20:39.774Z,4.30
2022-09-05T05:24:29.690Z,3.90
2022-09-05T05:28:24.027Z,5.60
2022-09-05T05:32:10.195Z,7.20
2022-09-05T05:35:58.260Z,9.00
2022-09-05T05:39:48.242Z,4.90
2022-09-05T05:43:46.314Z,5.60
2022-09-05T05:47:38.265Z,8.00
2022-09-05T05:52:01.655Z,3.90
2022-09-05T05:56:04.925Z,9.60
2022-09-05T06:00:15.199Z,4.60
2022-09-05T06:04:23.399Z,5.70
2022-09-05T06:13:02.293Z,4.50
2022-09-05T06:15:01.623Z,2.80
2022-09-05T06:17:49.229Z,3.60
2022-09-05T06:26:27.278Z,3.40
2022-09-05T06:30:16.345Z,2.10
2022-09-05T06:34:35.027Z,2.40
2022-09-05T06:38:44.425Z,3.00
2022-09-05T06:42:53.043Z,2.20
2022-09-05T06:47:07.742Z,2.70
2022-09-05T06:51:07.737Z,2.40
2022-09-05T06:55:17.491Z,2.20
2022-09-05T06:59:41.997Z,11.80
2022-09-05T07:03:41.212Z,5.60
2022-09-05T07:07:35.712Z,7.10
2022-09-05T07:11:24.389Z,21.80
2022-09-05T07:15:19.266Z,24.60
2022-09-05T07:19:17.456Z,4.20
2022-09-05T07:23:23.077Z,10.30
2022-09-05T07:27:41.707Z,4.00
2022-09-05T07:31:41.364Z,2.30
2022-09-05T07:35:31.253Z,7.60
2022-09-05T07:39:31.858Z,11.90
2022-09-05T07:43:23.644Z,3.40
2022-09-05T07:47:16.054Z,4.30
2022-09-05T07:56:19.186Z,3.30
2022-09-05T07:57:07.927Z,1.50
2022-09-05T07:59:36.915Z,1.40
2022-09-05T08:03:29.515Z,4.30
2022-09-05T08:07:49.161Z,2.30
2022-09-05T08:11:32.718Z,1.80
2022-09-05T08:15:23.774Z,2.30
2022-09-05T08:19:30.822Z,3.80
2022-09-05T08:23:36.575Z,1.60
2022-09-05T08:27:25.969Z,1.00
2022-09-05T08:31:16.701Z,4.50
2022-09-05T08:35:08.867Z,2.40
2022-09-05T08:38:54.616Z,6.40
2022-09-05T08:42:52.735Z,4.70
2022-09-05T08:47:02.203Z,1.60
2022-09-05T08:51:07.210Z,1.10
2022-09-05T08:55:07.388Z,2.50
2022-09-05T08:59:27.585Z,1.80
2022-09-05T09:03:25.782Z,2.10
2022-09-05T09:07:48.224Z,2.80
2022-09-05T09:11:44.838Z,1.80
2022-09-05T09:15:36.870Z,1.20
2022-09-05T09:19:29.419Z,1.10
2022-09-05T09:23:31.825Z,3.70
2022-09-05T09:28:47.701Z,0.80
2022-09-05T09:32:16.506Z,1.50
2022-09-05T09:36:09.965Z,2.40
2022-09-05T09:40:24.100Z,3.40
2022-09-05T09:44:39.969Z,2.00
2022-09-05T09:48:55.428Z,2.50
2022-09-05T09:53:04.056Z,0.80
2022-09-05T09:57:22.596Z,10.30
2022-09-05T10:01:34.747Z,0.60
2022-09-05T10:10:34.599Z,0.60
2022-09-05T10:10:57.644Z,2.20
2022-09-05T11:01:10.393Z,16.40
2022-09-05T11:03:15.474Z,12.40
2022-09-05T11:07:15.912Z,15.10
2022-09-05T11:11:10.518Z,14.30
2022-09-05T11:27:41.787Z,11.90
2022-09-05T11:31:47.744Z,8.10
2022-09-05T11:39:53.790Z,5.60
2022-09-05T11:40:36.558Z,4.00
2022-09-05T11:44:35.976Z,5.00
2022-09-05T11:48:38.539Z,5.00
2022-09-05T11:52:59.000Z,119.50
2022-09-05T11:57:33.556Z,92.80
2022-09-05T12:01:43.336Z,131.90
2022-09-05T12:10:45.778Z,96.20
2022-09-05T12:14:42.461Z,107.80
2022-09-05T12:18:43.379Z,96.00
2022-09-05T12:27:42.270Z,80.80
2022-09-05T12:31:00.721Z,73.40
2022-09-05T12:41:01.130Z,54.30
2022-09-05T12:41:40.967Z,120.00
2022-09-05T12:44:37.177Z,58.20
2022-09-05T12:47:59.047Z,49.00
2022-09-05T12:51:55.289Z,48.20
2022-09-05T12:55:42.605Z,40.80
2022-09-05T13:02:57.471Z,31.80
2022-09-05T13:04:16.482Z,26.70
2022-09-05T13:15:27.944Z,19.80
2022-09-05T13:19:28.591Z,15.40
2022-09-05T13:23:23.165Z,13.50
2022-09-05T13:27:15.253Z,9.70
2022-09-05T13:37:46.990Z,7.80
2022-09-05T13:38:12.339Z,12.00
2022-09-05T13:43:13.141Z,20.80
2022-09-05T13:47:14.756Z,15.90
2022-09-05T13:51:30.212Z,9.70
2022-09-05T13:55:26.052Z,8.70
2022-09-05T13:59:14.603Z,10.40
2022-09-05T14:03:31.829Z,7.60
2022-09-05T14:07:52.277Z,6.20
2022-09-05T14:12:03.867Z,5.90
2022-09-05T14:15:59.889Z,11.20
2022-09-05T14:20:04.121Z,9.10
2022-09-05T14:23:59.603Z,7.30
2022-09-05T14:27:52.192Z,21.70
2022-09-05T14:37:12.946Z,41.60
2022-09-05T14:38:00.625Z,106.10
2022-09-05T14:39:35.808Z,80.70
2022-09-05T14:43:35.597Z,67.20
2022-09-05T14:47:36.296Z,42.40
2022-09-05T14:51:26.193Z,33.70
2022-09-05T15:02:42.985Z,21.30
2022-09-05T15:03:00.279Z,20.40
2022-09-05T15:06:32.925Z,20.60
2022-09-05T15:12:15.235Z,20.60
2022-09-05T15:14:30.223Z,15.60
2022-09-05T15:18:01.891Z,7.90
2022-09-05T15:21:42.200Z,9.50
2022-09-05T15:25:22.615Z,8.90
2022-09-05T15:28:52.283Z,9.80
2022-09-05T15:32:40.985Z,12.20
2022-09-05T15:36:13.614Z,14.00
2022-09-05T15:39:43.793Z,9.70
2022-09-05T15:43:19.998Z,12.70
2022-09-05T15:46:58.084Z,10.20
2022-09-05T15:50:27.119Z,9.80
2022-09-05T15:53:56.680Z,11.00
2022-09-05T16:02:20.915Z,3.70
2022-09-05T16:10:33.859Z,1.00
2022-09-05T16:10:39.108Z,2.40
2022-09-05T16:13:53.173Z,1.60
2022-09-05T16:23:19.237Z,3.80
2022-09-05T16:23:36.409Z,1.30
2022-09-05T16:25:16.584Z,0.40
2022-09-05T16:28:53.039Z,0.90
2022-09-05T16:32:31.258Z,2.00
2022-09-05T16:36:16.335Z,2.00
2022-09-05T16:39:49.457Z,0.60
2022-09-05T16:43:21.680Z,0.30
2022-09-05T16:47:23.656Z,3.00
2022-09-05T16:51:15.783Z,1.30
2022-09-05T16:54:50.980Z,3.30
2022-09-05T16:58:23.350Z,4.80
2022-09-05T17:02:05.749Z,1.70
2022-09-05T17:05:46.202Z,3.40
2022-09-05T17:09:25.194Z,2.10
2022-09-05T17:13:07.838Z,1.20
2022-09-05T17:16:56.098Z,1.00
2022-09-05T17:20:27.754Z,3.50
2022-09-05T17:29:17.918Z,4.80
2022-09-05T17:29:49.900Z,6.90
2022-09-05T17:35:42.855Z,2.80
2022-09-05T17:39:44.136Z,4.80
2022-09-05T17:43:28.707Z,7.20
2022-09-05T17:47:08.247Z,10.20
2022-09-05T17:50:54.336Z,7.80
2022-09-05T17:54:35.196Z,2.30
2022-09-05T17:58:34.680Z,5.30
2022-09-05T18:02:35.387Z,2.10
2022-09-05T18:06:12.506Z,8.60
2022-09-05T18:10:14.789Z,2.70
2022-09-05T18:14:00.611Z,7.80
2022-09-05T18:22:06.641Z,6.00
2022-09-05T18:25:46.010Z,2.60
2022-09-05T18:29:58.206Z,3.10
2022-09-05T18:33:53.522Z,3.80
2022-09-05T18:37:41.821Z,2.60
2022-09-05T18:41:18.578Z,7.10
2022-09-05T18:44:50.377Z,3.90
2022-09-05T18:48:29.017Z,6.60
2022-09-05T18:52:06.212Z,2.00
2022-09-05T18:56:14.015Z,2.60
2022-09-05T18:59:28.793Z,2.50
2022-09-05T19:03:06.375Z,4.80
2022-09-05T19:06:45.243Z,3.50
2022-09-05T19:10:34.301Z,4.30
2022-09-05T19:14:28.576Z,2.20
2022-09-05T19:18:03.712Z,3.50
2022-09-05T19:22:09.117Z,3.90
2022-09-05T19:26:09.858Z,3.10
2022-09-05T19:36:52.546Z,2.80
2022-09-05T19:36:53.308Z,2.40
2022-09-05T19:37:41.015Z,5.20
2022-09-05T19:47:31.172Z,4.20
2022-09-05T19:47:46.588Z,7.10
2022-09-05T19:49:08.108Z,3.60
2022-09-05T19:52:39.486Z,6.10
2022-09-05T19:56:07.447Z,4.00
2022-09-05T19:59:38.498Z,2.60
2022-09-05T20:03:09.540Z,4.50
2022-09-05T20:06:40.351Z,2.80
2022-09-05T20:10:08.659Z,2.30
2022-09-05T20:13:41.247Z,2.70
2022-09-05T20:17:25.216Z,1.70
2022-09-05T20:21:02.202Z,3.80
2022-09-05T20:24:36.643Z,3.60
2022-09-05T20:28:09.886Z,4.50
2022-09-05T20:31:47.569Z,1.90
2022-09-05T20:41:06.930Z,3.50
2022-09-05T20:43:24.924Z,2.70
2022-09-05T20:43:37.931Z,2.20
2022-09-05T20:53:49.252Z,2.40
2022-09-05T20:54:18.859Z,2.20
2022-09-05T20:54:53.584Z,2.20
2022-09-05T20:58:31.472Z,2.00
2022-09-05T21:02:05.900Z,2.50
2022-09-05T21:05:35.565Z,2.10
2022-09-05T21:09:22.601Z,4.20
2022-09-05T21:12:57.814Z,2.80
2022-09-05T21:16:33.333Z,2.60
2022-09-05T21:20:09.486Z,4.00
2022-09-05T21:23:53.308Z,2.70
2022-09-05T21:31:28.249Z,2.80
2022-09-05T21:34:57.400Z,2.60
2022-09-05T21:38:32.482Z,6.50
2022-09-05T21:42:35.638Z,2.50
2022-09-05T21:49:35.454Z,3.40
2022-09-05T21:54:06.505Z,3.80
2022-09-05T21:59:32.588Z,1.70
2022-09-05T22:00:46.632Z,1.80
2022-09-05T22:04:16.074Z,1.60
2022-09-05T22:07:45.864Z,2.80
2022-09-05T22:11:15.488Z,4.30
2022-09-05T22:14:44.168Z,1.60
2022-09-05T22:18:17.475Z,3.10
2022-09-05T22:21:59.449Z,2.20
2022-09-05T22:25:34.522Z,3.50
2022-09-05T22:29:03.765Z,2.90
2022-09-05T22:32:35.546Z,2.20
2022-09-05T22:36:14.702Z,3.10
2022-09-05T22:40:06.131Z,2.50
2022-09-05T22:43:50.621Z,3.90
2022-09-05T22:47:28.121Z,2.40
2022-09-05T22:51:06.346Z,4.30
2022-09-05T22:54:34.221Z,3.10
2022-09-05T22:58:30.353Z,2.60
2022-09-05T23:05:38.623Z,3.50
2022-09-05T23:09:07.607Z,6.50
2022-09-05T23:12:38.291Z,2.70
2022-09-05T23:16:06.577Z,4.20
2022-09-05T23:19:37.046Z,3.30
2022-09-05T23:23:08.187Z,2.00
2022-09-05T23:26:35.667Z,2.80
2022-09-05T23:30:02.714Z,2.40
2022-09-05T23:33:30.393Z,4.90
2022-09-05T23:36:57.641Z,2.00
2022-09-05T23:40:25.702Z,3.30
2022-09-05T23:43:53.271Z,2.90
2022-09-05T23:47:20.441Z,2.80
2022-09-05T23:50:47.694Z,4.00
2022-09-05T23:54:14.333Z,5.80
2022-09-05T23:57:41.253Z,1.90
